sensor_id;sensor_type;location;lat;lon;timestamp;P1;durP1;ratioP1;P2;durP2;ratioP2
34639;SDS011;22600;48.186;11.526;2022-08-27T00:01:27;7.78;;;5.40;;
34639;SDS011;22600;48.186;11.526;2022-08-27T00:03:53;5.90;;;5.05;;
34639;SDS011;22600;48.186;11.526;2022-08-27T00:06:19;6.32;;;5.20;;
34639;SDS011;22600;48.186;11.526;2022-08-27T00:08:45;5.95;;;4.90;;
34639;SDS011;22600;48.186;11.526;2022-08-27T00:11:12;7.63;;;5.40;;
34639;SDS011;22600;48.186;11.526;2022-08-27T00:13:38;6.32;;;5.30;;
34639;SDS011;22600;48.186;11.526;2022-08-27T00:16:05;6.63;;;5.15;;
34639;SDS011;22600;48.186;11.526;2022-08-27T00:18:33;5.90;;;5.30;;
34639;SDS011;22600;48.186;11.526;2022-08-27T00:20:59;7.57;;;5.65;;
34639;SDS011;22600;48.186;11.526;2022-08-27T00:23:25;7.18;;;5.28;;
34639;SDS011;22600;48.186;11.526;2022-08-27T00:25:52;7.28;;;5.18;;
34639;SDS011;22600;48.186;11.526;2022-08-27T00:28:18;6.97;;;5.15;;
34639;SDS011;22600;48.186;11.526;2022-08-27T00:30:43;6.05;;;5.25;;
34639;SDS011;22600;48.186;11.526;2022-08-27T00:33:09;5.50;;;4.90;;
34639;SDS011;22600;48.186;11.526;2022-08-27T00:35:35;6.15;;;5.30;;
34639;SDS011;22600;48.186;11.526;2022-08-27T00:38:01;6.57;;;5.22;;
34639;SDS011;22600;48.186;11.526;2022-08-27T00:40:28;5.95;;;5.15;;
34639;SDS011;22600;48.186;11.526;2022-08-27T00:42:54;6.90;;;5.20;;
34639;SDS011;22600;48.186;11.526;2022-08-27T00:45:20;6.70;;;5.07;;
34639;SDS011;22600;48.186;11.526;2022-08-27T00:47:49;6.28;;;4.90;;
34639;SDS011;22600;48.186;11.526;2022-08-27T00:50:32;5.60;;;5.00;;
34639;SDS011;22600;48.186;11.526;2022-08-27T00:53:05;6.25;;;4.88;;
34639;SDS011;22600;48.186;11.526;2022-08-27T00:55:36;6.28;;;5.13;;
34639;SDS011;22600;48.186;11.526;2022-08-27T01:00:52;6.35;;;5.40;;
34639;SDS011;22600;48.186;11.526;2022-08-27T01:03:17;6.47;;;5.00;;
34639;SDS011;22600;48.186;11.526;2022-08-27T01:05:43;5.80;;;5.07;;
34639;SDS011;22600;48.186;11.526;2022-08-27T01:08:12;6.40;;;5.47;;
34639;SDS011;22600;48.186;11.526;2022-08-27T01:10:41;6.28;;;5.07;;
34639;SDS011;22600;48.186;11.526;2022-08-27T01:13:08;5.78;;;4.97;;
34639;SDS011;22600;48.186;11.526;2022-08-27T01:15:35;5.25;;;4.75;;
34639;SDS011;22600;48.186;11.526;2022-08-27T01:18:03;6.18;;;5.47;;
34639;SDS011;22600;48.186;11.526;2022-08-27T01:20:34;6.22;;;4.97;;
34639;SDS011;22600;48.186;11.526;2022-08-27T01:25:51;5.65;;;4.97;;
34639;SDS011;22600;48.186;11.526;2022-08-27T01:28:17;5.72;;;5.13;;
34639;SDS011;22600;48.186;11.526;2022-08-27T01:30:43;5.65;;;5.03;;
34639;SDS011;22600;48.186;11.526;2022-08-27T01:33:14;5.85;;;4.85;;
34639;SDS011;22600;48.186;11.526;2022-08-27T01:35:43;5.70;;;4.93;;
34639;SDS011;22600;48.186;11.526;2022-08-27T01:38:13;5.60;;;4.97;;
34639;SDS011;22600;48.186;11.526;2022-08-27T01:40:40;6.15;;;5.00;;
34639;SDS011;22600;48.186;11.526;2022-08-27T01:43:06;5.65;;;4.90;;
34639;SDS011;22600;48.186;11.526;2022-08-27T01:45:33;5.28;;;4.78;;
34639;SDS011;22600;48.186;11.526;2022-08-27T01:48:04;5.55;;;4.80;;
34639;SDS011;22600;48.186;11.526;2022-08-27T01:50:32;5.20;;;4.60;;
34639;SDS011;22600;48.186;11.526;2022-08-27T01:53:02;6.20;;;4.85;;
34639;SDS011;22600;48.186;11.526;2022-08-27T01:55:35;6.68;;;4.72;;
34639;SDS011;22600;48.186;11.526;2022-08-27T01:58:02;5.75;;;4.88;;
34639;SDS011;22600;48.186;11.526;2022-08-27T02:00:29;5.55;;;4.72;;
34639;SDS011;22600;48.186;11.526;2022-08-27T02:02:58;5.93;;;4.93;;
34639;SDS011;22600;48.186;11.526;2022-08-27T02:05:25;6.03;;;4.85;;
34639;SDS011;22600;48.186;11.526;2022-08-27T02:07:52;5.85;;;4.85;;
34639;SDS011;22600;48.186;11.526;2022-08-27T02:10:20;5.95;;;4.82;;
34639;SDS011;22600;48.186;11.526;2022-08-27T02:12:48;5.40;;;4.70;;
34639;SDS011;22600;48.186;11.526;2022-08-27T02:15:14;5.95;;;4.90;;
34639;SDS011;22600;48.186;11.526;2022-08-27T02:17:40;5.15;;;4.50;;
34639;SDS011;22600;48.186;11.526;2022-08-27T02:20:07;5.50;;;4.68;;
34639;SDS011;22600;48.186;11.526;2022-08-27T02:22:33;5.97;;;5.07;;
34639;SDS011;22600;48.186;11.526;2022-08-27T02:24:59;5.80;;;4.82;;
34639;SDS011;22600;48.186;11.526;2022-08-27T02:27:26;5.47;;;4.70;;
34639;SDS011;22600;48.186;11.526;2022-08-27T02:29:51;5.22;;;4.70;;
34639;SDS011;22600;48.186;11.526;2022-08-27T02:32:17;5.47;;;4.70;;
34639;SDS011;22600;48.186;11.526;2022-08-27T02:34:44;5.15;;;4.65;;
34639;SDS011;22600;48.186;11.526;2022-08-27T02:37:09;5.07;;;4.57;;
34639;SDS011;22600;48.186;11.526;2022-08-27T02:39:35;5.47;;;4.70;;
34639;SDS011;22600;48.186;11.526;2022-08-27T02:42:01;5.90;;;5.05;;
34639;SDS011;22600;48.186;11.526;2022-08-27T02:44:26;5.20;;;4.47;;
34639;SDS011;22600;48.186;11.526;2022-08-27T02:46:52;5.43;;;4.68;;
34639;SDS011;22600;48.186;11.526;2022-08-27T02:49:17;5.57;;;4.40;;
34639;SDS011;22600;48.186;11.526;2022-08-27T02:51:43;5.60;;;4.60;;
34639;SDS011;22600;48.186;11.526;2022-08-27T02:54:09;4.68;;;4.00;;
34639;SDS011;22600;48.186;11.526;2022-08-27T02:56:34;5.25;;;4.68;;
34639;SDS011;22600;48.186;11.526;2022-08-27T02:59:01;5.07;;;4.50;;
34639;SDS011;22600;48.186;11.526;2022-08-27T03:01:27;4.90;;;4.40;;
34639;SDS011;22600;48.186;11.526;2022-08-27T03:03:52;5.18;;;4.60;;
34639;SDS011;22600;48.186;11.526;2022-08-27T03:06:18;5.47;;;4.60;;
34639;SDS011;22600;48.186;11.526;2022-08-27T03:08:44;5.75;;;4.75;;
34639;SDS011;22600;48.186;11.526;2022-08-27T03:11:09;5.15;;;4.65;;
34639;SDS011;22600;48.186;11.526;2022-08-27T03:13:37;4.88;;;4.38;;
34639;SDS011;22600;48.186;11.526;2022-08-27T03:16:03;5.65;;;4.65;;
34639;SDS011;22600;48.186;11.526;2022-08-27T03:18:29;5.18;;;4.38;;
34639;SDS011;22600;48.186;11.526;2022-08-27T03:20:57;5.18;;;4.65;;
34639;SDS011;22600;48.186;11.526;2022-08-27T03:23:25;5.80;;;4.53;;
34639;SDS011;22600;48.186;11.526;2022-08-27T03:25:54;4.85;;;4.25;;
34639;SDS011;22600;48.186;11.526;2022-08-27T03:28:22;5.30;;;4.55;;
34639;SDS011;22600;48.186;11.526;2022-08-27T03:30:53;5.25;;;4.60;;
34639;SDS011;22600;48.186;11.526;2022-08-27T03:33:25;5.70;;;4.60;;
34639;SDS011;22600;48.186;11.526;2022-08-27T03:35:52;5.15;;;4.65;;
34639;SDS011;22600;48.186;11.526;2022-08-27T03:38:18;4.93;;;4.30;;
34639;SDS011;22600;48.186;11.526;2022-08-27T03:40:44;4.72;;;4.20;;
34639;SDS011;22600;48.186;11.526;2022-08-27T03:43:13;4.75;;;4.15;;
34639;SDS011;22600;48.186;11.526;2022-08-27T03:45:41;4.78;;;4.15;;
34639;SDS011;22600;48.186;11.526;2022-08-27T03:48:08;5.00;;;4.38;;
34639;SDS011;22600;48.186;11.526;2022-08-27T03:50:36;4.70;;;4.20;;
34639;SDS011;22600;48.186;11.526;2022-08-27T03:53:02;4.80;;;4.18;;
34639;SDS011;22600;48.186;11.526;2022-08-27T03:55:28;5.18;;;4.30;;
34639;SDS011;22600;48.186;11.526;2022-08-27T03:57:54;5.45;;;4.13;;
34639;SDS011;22600;48.186;11.526;2022-08-27T04:00:19;5.38;;;4.50;;
34639;SDS011;22600;48.186;11.526;2022-08-27T04:02:45;5.13;;;4.47;;
34639;SDS011;22600;48.186;11.526;2022-08-27T04:05:11;4.85;;;4.25;;
34639;SDS011;22600;48.186;11.526;2022-08-27T04:07:38;5.50;;;4.13;;
34639;SDS011;22600;48.186;11.526;2022-08-27T04:10:05;4.35;;;3.95;;
34639;SDS011;22600;48.186;11.526;2022-08-27T04:12:32;4.63;;;4.15;;
34639;SDS011;22600;48.186;11.526;2022-08-27T04:14:57;4.75;;;4.20;;
34639;SDS011;22600;48.186;11.526;2022-08-27T04:17:23;5.35;;;4.35;;
34639;SDS011;22600;48.186;11.526;2022-08-27T04:19:50;5.35;;;4.28;;
34639;SDS011;22600;48.186;11.526;2022-08-27T04:22:16;5.40;;;4.18;;
34639;SDS011;22600;48.186;11.526;2022-08-27T04:24:42;5.50;;;4.60;;
34639;SDS011;22600;48.186;11.526;2022-08-27T04:27:08;5.13;;;4.40;;
34639;SDS011;22600;48.186;11.526;2022-08-27T04:29:35;4.72;;;4.20;;
34639;SDS011;22600;48.186;11.526;2022-08-27T04:32:01;5.75;;;4.60;;
34639;SDS011;22600;48.186;11.526;2022-08-27T04:34:28;5.20;;;4.28;;
34639;SDS011;22600;48.186;11.526;2022-08-27T04:36:55;4.97;;;4.40;;
34639;SDS011;22600;48.186;11.526;2022-08-27T04:39:20;5.13;;;4.25;;
34639;SDS011;22600;48.186;11.526;2022-08-27T04:41:50;4.88;;;4.30;;
34639;SDS011;22600;48.186;11.526;2022-08-27T04:44:16;4.80;;;4.18;;
34639;SDS011;22600;48.186;11.526;2022-08-27T04:46:42;4.85;;;4.05;;
34639;SDS011;22600;48.186;11.526;2022-08-27T04:49:10;4.70;;;4.20;;
34639;SDS011;22600;48.186;11.526;2022-08-27T04:51:37;5.05;;;4.32;;
34639;SDS011;22600;48.186;11.526;2022-08-27T04:54:03;5.00;;;4.32;;
34639;SDS011;22600;48.186;11.526;2022-08-27T04:56:30;4.80;;;4.32;;
34639;SDS011;22600;48.186;11.526;2022-08-27T04:58:56;4.97;;;4.45;;
34639;SDS011;22600;48.186;11.526;2022-08-27T05:01:26;4.72;;;4.22;;
34639;SDS011;22600;48.186;11.526;2022-08-27T05:03:53;5.00;;;4.30;;
34639;SDS011;22600;48.186;11.526;2022-08-27T05:06:19;4.82;;;4.18;;
34639;SDS011;22600;48.186;11.526;2022-08-27T05:08:46;4.80;;;4.13;;
34639;SDS011;22600;48.186;11.526;2022-08-27T05:11:13;4.65;;;4.10;;
34639;SDS011;22600;48.186;11.526;2022-08-27T05:13:40;4.60;;;3.90;;
34639;SDS011;22600;48.186;11.526;2022-08-27T05:16:08;4.68;;;4.03;;
34639;SDS011;22600;48.186;11.526;2022-08-27T05:18:37;4.30;;;3.90;;
34639;SDS011;22600;48.186;11.526;2022-08-27T05:21:03;5.05;;;4.07;;
34639;SDS011;22600;48.186;11.526;2022-08-27T05:23:30;5.28;;;4.28;;
34639;SDS011;22600;48.186;11.526;2022-08-27T05:25:57;4.78;;;4.10;;
34639;SDS011;22600;48.186;11.526;2022-08-27T05:28:23;4.55;;;3.97;;
34639;SDS011;22600;48.186;11.526;2022-08-27T05:30:51;4.70;;;4.00;;
34639;SDS011;22600;48.186;11.526;2022-08-27T05:33:20;5.05;;;4.32;;
34639;SDS011;22600;48.186;11.526;2022-08-27T05:35:52;4.50;;;3.80;;
34639;SDS011;22600;48.186;11.526;2022-08-27T05:38:19;4.40;;;4.00;;
34639;SDS011;22600;48.186;11.526;2022-08-27T05:40:46;4.85;;;4.30;;
34639;SDS011;22600;48.186;11.526;2022-08-27T05:43:13;4.30;;;3.90;;
34639;SDS011;22600;48.186;11.526;2022-08-27T05:45:46;4.30;;;3.87;;
34639;SDS011;22600;48.186;11.526;2022-08-27T05:48:13;4.20;;;3.80;;
34639;SDS011;22600;48.186;11.526;2022-08-27T05:50:40;4.30;;;3.90;;
34639;SDS011;22600;48.186;11.526;2022-08-27T05:53:07;5.28;;;4.28;;
34639;SDS011;22600;48.186;11.526;2022-08-27T05:55:38;4.70;;;4.03;;
34639;SDS011;22600;48.186;11.526;2022-08-27T05:58:06;4.32;;;3.92;;
34639;SDS011;22600;48.186;11.526;2022-08-27T06:00:32;4.35;;;3.70;;
34639;SDS011;22600;48.186;11.526;2022-08-27T06:03:19;4.28;;;3.67;;
34639;SDS011;22600;48.186;11.526;2022-08-27T06:05:45;4.00;;;3.60;;
34639;SDS011;22600;48.186;11.526;2022-08-27T06:08:10;4.20;;;3.80;;
34639;SDS011;22600;48.186;11.526;2022-08-27T06:10:38;4.50;;;3.78;;
34639;SDS011;22600;48.186;11.526;2022-08-27T06:13:05;4.63;;;4.10;;
34639;SDS011;22600;48.186;11.526;2022-08-27T06:15:30;4.20;;;3.80;;
34639;SDS011;22600;48.186;11.526;2022-08-27T06:17:56;4.20;;;3.80;;
34639;SDS011;22600;48.186;11.526;2022-08-27T06:20:22;4.65;;;3.85;;
34639;SDS011;22600;48.186;11.526;2022-08-27T06:22:47;4.03;;;3.47;;
34639;SDS011;22600;48.186;11.526;2022-08-27T06:25:13;4.72;;;3.65;;
34639;SDS011;22600;48.186;11.526;2022-08-27T06:27:39;3.80;;;3.40;;
34639;SDS011;22600;48.186;11.526;2022-08-27T06:30:05;4.40;;;3.83;;
34639;SDS011;22600;48.186;11.526;2022-08-27T06:32:31;5.00;;;3.92;;
34639;SDS011;22600;48.186;11.526;2022-08-27T06:34:57;4.65;;;3.90;;
34639;SDS011;22600;48.186;11.526;2022-08-27T06:37:23;4.20;;;3.80;;
34639;SDS011;22600;48.186;11.526;2022-08-27T06:39:48;4.07;;;3.67;;
34639;SDS011;22600;48.186;11.526;2022-08-27T06:42:15;4.22;;;3.58;;
34639;SDS011;22600;48.186;11.526;2022-08-27T06:44:41;4.28;;;3.85;;
34639;SDS011;22600;48.186;11.526;2022-08-27T06:47:07;3.92;;;3.53;;
34639;SDS011;22600;48.186;11.526;2022-08-27T06:49:33;4.45;;;3.90;;
34639;SDS011;22600;48.186;11.526;2022-08-27T06:51:59;4.25;;;3.83;;
34639;SDS011;22600;48.186;11.526;2022-08-27T06:54:24;3.90;;;3.50;;
34639;SDS011;22600;48.186;11.526;2022-08-27T06:56:50;4.45;;;3.90;;
34639;SDS011;22600;48.186;11.526;2022-08-27T06:59:16;4.32;;;3.92;;
34639;SDS011;22600;48.186;11.526;2022-08-27T07:01:44;4.60;;;3.75;;
34639;SDS011;22600;48.186;11.526;2022-08-27T07:04:15;4.38;;;3.97;;
34639;SDS011;22600;48.186;11.526;2022-08-27T07:06:47;4.45;;;3.75;;
34639;SDS011;22600;48.186;11.526;2022-08-27T07:09:13;3.83;;;3.42;;
34639;SDS011;22600;48.186;11.526;2022-08-27T07:11:39;4.00;;;3.58;;
34639;SDS011;22600;48.186;11.526;2022-08-27T07:14:05;4.72;;;3.90;;
34639;SDS011;22600;48.186;11.526;2022-08-27T07:16:32;4.15;;;3.75;;
34639;SDS011;22600;48.186;11.526;2022-08-27T07:18:58;4.28;;;3.58;;
34639;SDS011;22600;48.186;11.526;2022-08-27T07:21:26;4.30;;;3.83;;
34639;SDS011;22600;48.186;11.526;2022-08-27T07:23:52;3.95;;;3.55;;
34639;SDS011;22600;48.186;11.526;2022-08-27T07:26:20;4.30;;;3.75;;
34639;SDS011;22600;48.186;11.526;2022-08-27T07:28:46;4.22;;;3.67;;
34639;SDS011;22600;48.186;11.526;2022-08-27T07:31:13;4.00;;;3.45;;
34639;SDS011;22600;48.186;11.526;2022-08-27T07:33:43;3.88;;;3.45;;
34639;SDS011;22600;48.186;11.526;2022-08-27T07:36:10;4.25;;;3.70;;
34639;SDS011;22600;48.186;11.526;2022-08-27T07:38:36;4.22;;;3.47;;
34639;SDS011;22600;48.186;11.526;2022-08-27T07:41:05;4.15;;;3.67;;
34639;SDS011;22600;48.186;11.526;2022-08-27T07:46:16;4.15;;;3.75;;
34639;SDS011;22600;48.186;11.526;2022-08-27T07:48:42;3.50;;;3.20;;
34639;SDS011;22600;48.186;11.526;2022-08-27T07:51:14;3.83;;;3.42;;
34639;SDS011;22600;48.186;11.526;2022-08-27T07:53:41;4.20;;;3.78;;
34639;SDS011;22600;48.186;11.526;2022-08-27T07:56:08;4.45;;;3.70;;
34639;SDS011;22600;48.186;11.526;2022-08-27T07:58:34;5.28;;;3.80;;
34639;SDS011;22600;48.186;11.526;2022-08-27T08:01:00;4.10;;;3.65;;
34639;SDS011;22600;48.186;11.526;2022-08-27T08:03:26;4.15;;;3.75;;
34639;SDS011;22600;48.186;11.526;2022-08-27T08:05:52;4.05;;;3.53;;
34639;SDS011;22600;48.186;11.526;2022-08-27T08:08:19;4.28;;;3.70;;
34639;SDS011;22600;48.186;11.526;2022-08-27T08:10:45;4.15;;;3.72;;
34639;SDS011;22600;48.186;11.526;2022-08-27T08:13:15;3.70;;;3.30;;
34639;SDS011;22600;48.186;11.526;2022-08-27T08:15:45;4.10;;;3.50;;
34639;SDS011;22600;48.186;11.526;2022-08-27T08:18:11;4.50;;;3.70;;
34639;SDS011;22600;48.186;11.526;2022-08-27T08:20:37;4.00;;;3.60;;
34639;SDS011;22600;48.186;11.526;2022-08-27T08:23:04;3.72;;;3.40;;
34639;SDS011;22600;48.186;11.526;2022-08-27T08:25:30;3.97;;;3.58;;
34639;SDS011;22600;48.186;11.526;2022-08-27T08:27:56;4.30;;;3.53;;
34639;SDS011;22600;48.186;11.526;2022-08-27T08:30:22;3.67;;;3.28;;
34639;SDS011;22600;48.186;11.526;2022-08-27T08:32:48;3.88;;;3.47;;
34639;SDS011;22600;48.186;11.526;2022-08-27T08:35:14;4.07;;;3.55;;
34639;SDS011;22600;48.186;11.526;2022-08-27T08:37:43;4.13;;;3.50;;
34639;SDS011;22600;48.186;11.526;2022-08-27T08:40:10;4.03;;;3.63;;
34639;SDS011;22600;48.186;11.526;2022-08-27T08:42:45;4.07;;;3.53;;
34639;SDS011;22600;48.186;11.526;2022-08-27T08:45:17;4.38;;;3.40;;
34639;SDS011;22600;48.186;11.526;2022-08-27T08:47:52;3.78;;;3.38;;
34639;SDS011;22600;48.186;11.526;2022-08-27T08:53:12;3.42;;;3.13;;
34639;SDS011;22600;48.186;11.526;2022-08-27T08:55:54;3.88;;;3.47;;
34639;SDS011;22600;48.186;11.526;2022-08-27T08:58:32;3.97;;;3.45;;
34639;SDS011;22600;48.186;11.526;2022-08-27T09:01:18;3.95;;;3.50;;
34639;SDS011;22600;48.186;11.526;2022-08-27T09:03:55;3.70;;;3.33;;
34639;SDS011;22600;48.186;11.526;2022-08-27T09:08:59;4.03;;;3.60;;
34639;SDS011;22600;48.186;11.526;2022-08-27T09:17:01;4.18;;;3.78;;
34639;SDS011;22600;48.186;11.526;2022-08-27T09:19:28;3.72;;;3.33;;
34639;SDS011;22600;48.186;11.526;2022-08-27T09:21:59;4.20;;;3.80;;
34639;SDS011;22600;48.186;11.526;2022-08-27T09:24:32;4.10;;;3.25;;
34639;SDS011;22600;48.186;11.526;2022-08-27T09:27:18;3.67;;;3.30;;
34639;SDS011;22600;48.186;11.526;2022-08-27T09:29:47;4.68;;;3.60;;
34639;SDS011;22600;48.186;11.526;2022-08-27T09:32:21;3.50;;;3.20;;
34639;SDS011;22600;48.186;11.526;2022-08-27T09:34:49;3.72;;;3.10;;
34639;SDS011;22600;48.186;11.526;2022-08-27T09:37:16;3.72;;;3.40;;
34639;SDS011;22600;48.186;11.526;2022-08-27T09:45:15;3.95;;;3.53;;
34639;SDS011;22600;48.186;11.526;2022-08-27T09:47:47;3.63;;;3.30;;
34639;SDS011;22600;48.186;11.526;2022-08-27T09:50:20;3.90;;;3.50;;
34639;SDS011;22600;48.186;11.526;2022-08-27T09:55:37;3.80;;;3.40;;
34639;SDS011;22600;48.186;11.526;2022-08-27T09:58:17;3.42;;;3.13;;
34639;SDS011;22600;48.186;11.526;2022-08-27T10:00:56;3.50;;;3.20;;
34639;SDS011;22600;48.186;11.526;2022-08-27T10:03:40;3.30;;;3.00;;
34639;SDS011;22600;48.186;11.526;2022-08-27T10:06:06;3.75;;;3.35;;
34639;SDS011;22600;48.186;11.526;2022-08-27T10:08:37;4.18;;;3.30;;
34639;SDS011;22600;48.186;11.526;2022-08-27T10:11:15;3.80;;;3.20;;
34639;SDS011;22600;48.186;11.526;2022-08-27T10:14:15;3.58;;;3.10;;
34639;SDS011;22600;48.186;11.526;2022-08-27T10:16:49;3.53;;;3.22;;
34639;SDS011;22600;48.186;11.526;2022-08-27T10:33:12;3.25;;;2.95;;
34639;SDS011;22600;48.186;11.526;2022-08-27T10:35:48;3.50;;;3.20;;
34639;SDS011;22600;48.186;11.526;2022-08-27T10:38:37;3.35;;;2.97;;
34639;SDS011;22600;48.186;11.526;2022-08-27T10:54:38;3.45;;;3.15;;
34639;SDS011;22600;48.186;11.526;2022-08-27T10:57:13;3.72;;;3.25;;
34639;SDS011;22600;48.186;11.526;2022-08-27T11:02:41;3.55;;;3.20;;
34639;SDS011;22600;48.186;11.526;2022-08-27T11:05:30;3.70;;;3.30;;
34639;SDS011;22600;48.186;11.526;2022-08-27T11:10:37;3.65;;;3.30;;
34639;SDS011;22600;48.186;11.526;2022-08-27T11:15:52;3.65;;;3.00;;
34639;SDS011;22600;48.186;11.526;2022-08-27T11:18:31;4.03;;;3.45;;
34639;SDS011;22600;48.186;11.526;2022-08-27T11:21:11;3.30;;;3.00;;
34639;SDS011;22600;48.186;11.526;2022-08-27T11:23:45;4.28;;;3.60;;
34639;SDS011;22600;48.186;11.526;2022-08-27T11:26:16;3.45;;;3.15;;
34639;SDS011;22600;48.186;11.526;2022-08-27T11:28:47;3.42;;;3.08;;
34639;SDS011;22600;48.186;11.526;2022-08-27T11:31:35;3.50;;;3.00;;
34639;SDS011;22600;48.186;11.526;2022-08-27T11:47:35;3.20;;;2.90;;
34639;SDS011;22600;48.186;11.526;2022-08-27T11:50:03;3.40;;;3.10;;
34639;SDS011;22600;48.186;11.526;2022-08-27T11:52:36;3.40;;;3.10;;
34639;SDS011;22600;48.186;11.526;2022-08-27T11:57:37;3.50;;;3.10;;
34639;SDS011;22600;48.186;11.526;2022-08-27T12:00:37;3.15;;;2.85;;
34639;SDS011;22600;48.186;11.526;2022-08-27T12:03:05;3.40;;;3.05;;
34639;SDS011;22600;48.186;11.526;2022-08-27T12:11:01;3.20;;;2.90;;
34639;SDS011;22600;48.186;11.526;2022-08-27T12:13:39;3.93;;;3.33;;
34639;SDS011;22600;48.186;11.526;2022-08-27T12:21:27;3.78;;;3.10;;
34639;SDS011;22600;48.186;11.526;2022-08-27T12:27:15;2.85;;;2.58;;
34639;SDS011;22600;48.186;11.526;2022-08-27T12:30:56;2.95;;;2.65;;
34639;SDS011;22600;48.186;11.526;2022-08-27T12:32:53;2.83;;;2.60;;
34639;SDS011;22600;48.186;11.526;2022-08-27T12:35:28;3.30;;;3.00;;
34639;SDS011;22600;48.186;11.526;2022-08-27T12:40:45;3.38;;;2.90;;
34639;SDS011;22600;48.186;11.526;2022-08-27T12:43:18;3.50;;;3.08;;
34639;SDS011;22600;48.186;11.526;2022-08-27T12:45:55;3.28;;;2.97;;
34639;SDS011;22600;48.186;11.526;2022-08-27T12:48:28;3.30;;;3.00;;
34639;SDS011;22600;48.186;11.526;2022-08-27T12:51:00;3.22;;;2.83;;
34639;SDS011;22600;48.186;11.526;2022-08-27T13:02:33;3.50;;;3.08;;
34639;SDS011;22600;48.186;11.526;2022-08-27T13:04:44;3.67;;;3.00;;
34639;SDS011;22600;48.186;11.526;2022-08-27T13:07:12;2.90;;;2.60;;
34639;SDS011;22600;48.186;11.526;2022-08-27T13:09:48;4.03;;;3.00;;
34639;SDS011;22600;48.186;11.526;2022-08-27T13:12:15;2.88;;;2.58;;
34639;SDS011;22600;48.186;11.526;2022-08-27T13:14:41;3.50;;;3.10;;
34639;SDS011;22600;48.186;11.526;2022-08-27T13:17:14;3.58;;;3.10;;
34639;SDS011;22600;48.186;11.526;2022-08-27T13:19:44;3.90;;;2.80;;
34639;SDS011;22600;48.186;11.526;2022-08-27T13:22:24;3.30;;;3.00;;
34639;SDS011;22600;48.186;11.526;2022-08-27T13:24:53;3.30;;;3.00;;
34639;SDS011;22600;48.186;11.526;2022-08-27T13:27:24;3.28;;;2.92;;
34639;SDS011;22600;48.186;11.526;2022-08-27T13:29:53;3.30;;;3.00;;
34639;SDS011;22600;48.186;11.526;2022-08-27T13:32:19;3.20;;;2.90;;
34639;SDS011;22600;48.186;11.526;2022-08-27T13:34:48;2.88;;;2.55;;
34639;SDS011;22600;48.186;11.526;2022-08-27T13:37:47;3.30;;;2.80;;
34639;SDS011;22600;48.186;11.526;2022-08-27T13:40:08;3.03;;;2.72;;
34639;SDS011;22600;48.186;11.526;2022-08-27T13:42:37;3.55;;;3.10;;
34639;SDS011;22600;48.186;11.526;2022-08-27T13:45:05;3.20;;;2.90;;
34639;SDS011;22600;48.186;11.526;2022-08-27T13:47:32;3.20;;;2.90;;
34639;SDS011;22600;48.186;11.526;2022-08-27T13:50:09;3.30;;;2.70;;
34639;SDS011;22600;48.186;11.526;2022-08-27T13:52:48;3.47;;;3.17;;
34639;SDS011;22600;48.186;11.526;2022-08-27T13:55:33;3.33;;;2.97;;
34639;SDS011;22600;48.186;11.526;2022-08-27T13:57:59;3.45;;;3.05;;
34639;SDS011;22600;48.186;11.526;2022-08-27T14:00:48;3.20;;;2.80;;
34639;SDS011;22600;48.186;11.526;2022-08-27T14:03:24;3.20;;;2.90;;
34639;SDS011;22600;48.186;11.526;2022-08-27T14:05:50;3.15;;;2.67;;
34639;SDS011;22600;48.186;11.526;2022-08-27T14:08:17;3.20;;;2.83;;
34639;SDS011;22600;48.186;11.526;2022-08-27T14:10:47;3.20;;;2.90;;
34639;SDS011;22600;48.186;11.526;2022-08-27T14:13:22;3.20;;;2.90;;
34639;SDS011;22600;48.186;11.526;2022-08-27T14:15:49;3.03;;;2.72;;
34639;SDS011;22600;48.186;11.526;2022-08-27T14:18:24;3.28;;;2.70;;
34639;SDS011;22600;48.186;11.526;2022-08-27T14:20:53;3.00;;;2.70;;
34639;SDS011;22600;48.186;11.526;2022-08-27T14:23:20;3.28;;;2.97;;
34639;SDS011;22600;48.186;11.526;2022-08-27T14:25:47;2.95;;;2.60;;
34639;SDS011;22600;48.186;11.526;2022-08-27T14:28:14;3.28;;;2.83;;
34639;SDS011;22600;48.186;11.526;2022-08-27T14:30:39;3.05;;;2.75;;
34639;SDS011;22600;48.186;11.526;2022-08-27T14:33:05;2.95;;;2.65;;
34639;SDS011;22600;48.186;11.526;2022-08-27T14:35:32;2.72;;;2.45;;
34639;SDS011;22600;48.186;11.526;2022-08-27T14:38:21;3.08;;;2.78;;
34639;SDS011;22600;48.186;11.526;2022-08-27T14:40:51;2.92;;;2.50;;
34639;SDS011;22600;48.186;11.526;2022-08-27T14:43:18;3.13;;;2.80;;
34639;SDS011;22600;48.186;11.526;2022-08-27T14:45:45;2.90;;;2.65;;
34639;SDS011;22600;48.186;11.526;2022-08-27T14:48:13;2.90;;;2.60;;
34639;SDS011;22600;48.186;11.526;2022-08-27T14:50:43;2.85;;;2.55;;
34639;SDS011;22600;48.186;11.526;2022-08-27T14:53:09;3.20;;;2.90;;
34639;SDS011;22600;48.186;11.526;2022-08-27T14:55:35;2.80;;;2.50;;
34639;SDS011;22600;48.186;11.526;2022-08-27T14:58:01;3.10;;;2.70;;
34639;SDS011;22600;48.186;11.526;2022-08-27T15:00:26;3.15;;;2.85;;
34639;SDS011;22600;48.186;11.526;2022-08-27T15:02:54;2.97;;;2.60;;
34639;SDS011;22600;48.186;11.526;2022-08-27T15:05:22;3.10;;;2.80;;
34639;SDS011;22600;48.186;11.526;2022-08-27T15:07:48;2.75;;;2.40;;
34639;SDS011;22600;48.186;11.526;2022-08-27T15:10:14;2.90;;;2.60;;
34639;SDS011;22600;48.186;11.526;2022-08-27T15:12:40;3.00;;;2.58;;
34639;SDS011;22600;48.186;11.526;2022-08-27T15:15:08;2.97;;;2.42;;
34639;SDS011;22600;48.186;11.526;2022-08-27T15:17:34;2.63;;;2.40;;
34639;SDS011;22600;48.186;11.526;2022-08-27T15:20:00;2.90;;;2.60;;
34639;SDS011;22600;48.186;11.526;2022-08-27T15:22:29;3.15;;;2.85;;
34639;SDS011;22600;48.186;11.526;2022-08-27T15:24:57;2.88;;;2.58;;
34639;SDS011;22600;48.186;11.526;2022-08-27T15:27:24;2.72;;;2.42;;
34639;SDS011;22600;48.186;11.526;2022-08-27T15:29:50;2.72;;;2.53;;
34639;SDS011;22600;48.186;11.526;2022-08-27T15:34:47;2.90;;;2.60;;
34639;SDS011;22600;48.186;11.526;2022-08-27T15:37:13;2.85;;;2.60;;
34639;SDS011;22600;48.186;11.526;2022-08-27T15:39:38;3.00;;;2.70;;
34639;SDS011;22600;48.186;11.526;2022-08-27T15:42:04;2.90;;;2.60;;
34639;SDS011;22600;48.186;11.526;2022-08-27T15:44:32;2.78;;;2.47;;
34639;SDS011;22600;48.186;11.526;2022-08-27T15:46:58;3.00;;;2.70;;
34639;SDS011;22600;48.186;11.526;2022-08-27T15:49:23;2.78;;;2.53;;
34639;SDS011;22600;48.186;11.526;2022-08-27T15:51:49;2.50;;;2.30;;
34639;SDS011;22600;48.186;11.526;2022-08-27T15:54:15;2.97;;;2.60;;
34639;SDS011;22600;48.186;11.526;2022-08-27T15:56:41;2.83;;;2.42;;
34639;SDS011;22600;48.186;11.526;2022-08-27T15:59:06;3.00;;;2.55;;
34639;SDS011;22600;48.186;11.526;2022-08-27T16:01:34;3.58;;;2.45;;
34639;SDS011;22600;48.186;11.526;2022-08-27T16:04:00;2.95;;;2.65;;
34639;SDS011;22600;48.186;11.526;2022-08-27T16:06:28;3.10;;;2.80;;
34639;SDS011;22600;48.186;11.526;2022-08-27T16:08:55;2.97;;;2.60;;
34639;SDS011;22600;48.186;11.526;2022-08-27T16:11:21;2.90;;;2.60;;
34639;SDS011;22600;48.186;11.526;2022-08-27T16:13:47;2.90;;;2.60;;
34639;SDS011;22600;48.186;11.526;2022-08-27T16:16:13;2.78;;;2.38;;
34639;SDS011;22600;48.186;11.526;2022-08-27T16:18:39;3.00;;;2.70;;
34639;SDS011;22600;48.186;11.526;2022-08-27T16:21:06;3.15;;;2.70;;
34639;SDS011;22600;48.186;11.526;2022-08-27T16:23:33;3.05;;;2.75;;
34639;SDS011;22600;48.186;11.526;2022-08-27T16:25:59;3.10;;;2.80;;
34639;SDS011;22600;48.186;11.526;2022-08-27T16:28:25;3.22;;;2.50;;
34639;SDS011;22600;48.186;11.526;2022-08-27T16:30:52;3.22;;;2.92;;